Time;durP1;ratioP1;P1;durP2;ratioP2;P2;SDS_P1;SDS_P2;PMS_P1;PMS_P2;Temp;Humidity;BMP_temperature;BMP_pressure;BME280_temperature;BME280_humidity;BME280_pressure;Samples;Min_cycle;Max_cycle;Signal;HPM_P1;HPM_P2
2023/01/26 00:01:29;;;;;;;31.27;17.73;;;1.40;99.90;;;;;;5086055;28;20236;-71
2023/01/26 00:03:56;;;;;;;22.55;15.60;;;1.10;99.90;;;;;;5085543;28;20072;-71
2023/01/26 00:06:22;;;;;;;25.45;16.40;;;1.10;99.90;;;;;;5098864;28;20066;-71
2023/01/26 00:08:50;;;;;;;27.80;18.48;;;1.20;99.90;;;;;;5096912;28;20074;-71
2023/01/26 00:11:20;;;;;;;28.60;16.98;;;1.70;99.90;;;;;;5098927;28;20040;-71
2023/01/26 00:13:51;;;;;;;27.00;17.67;;;1.10;99.90;;;;;;5089694;28;20040;-70
2023/01/26 00:16:18;;;;;;;28.40;16.83;;;1.10;99.90;;;;;;5098625;28;20043;-71
2023/01/26 00:18:44;;;;;;;23.38;17.25;;;1.20;99.90;;;;;;5098287;28;20051;-71
2023/01/26 00:21:19;;;;;;;28.70;17.92;;;1.70;99.90;;;;;;5098363;28;20054;-71
2023/01/26 00:23:46;;;;;;;26.92;16.17;;;1.10;99.90;;;;;;5096245;27;20044;-71
2023/01/26 00:26:19;;;;;;;27.23;16.13;;;2.60;99.90;;;;;;5098203;28;20154;-71
2023/01/26 00:28:45;;;;;;;26.23;18.50;;;1.20;99.90;;;;;;5095652;28;20040;-71
2023/01/26 00:31:20;;;;;;;27.20;18.67;;;1.70;99.90;;;;;;5098269;28;20048;-71
2023/01/26 00:33:46;;;;;;;25.02;18.00;;;1.20;99.90;;;;;;5088103;28;20051;-71
2023/01/26 00:36:12;;;;;;;27.08;17.92;;;1.20;99.90;;;;;;5089705;28;20085;-71
2023/01/26 00:38:39;;;;;;;25.08;16.33;;;1.80;99.90;;;;;;5095596;28;20065;-72
2023/01/26 00:41:05;;;;;;;25.27;17.17;;;1.30;99.90;;;;;;5071821;28;20067;-71
2023/01/26 00:43:30;;;;;;;20.38;15.50;;;1.60;99.90;;;;;;5083469;28;20055;-71
2023/01/26 00:45:56;;;;;;;25.20;18.08;;;1.30;99.90;;;;;;5091874;28;20039;-71
2023/01/26 00:48:22;;;;;;;27.30;18.70;;;1.20;99.90;;;;;;5098619;28;20124;-70
2023/01/26 00:50:50;;;;;;;24.92;17.20;;;1.30;99.90;;;;;;5091130;28;20670;-71
2023/01/26 00:53:16;;;;;;;23.73;15.25;;;1.30;99.90;;;;;;5084105;28;20043;-71
2023/01/26 00:55:42;;;;;;;27.85;18.33;;;1.30;99.90;;;;;;5090593;28;20051;-70
2023/01/26 00:58:08;;;;;;;22.08;15.07;;;1.30;99.90;;;;;;5087468;28;20805;-71
2023/01/26 01:00:36;;;;;;;21.23;14.90;;;1.30;99.90;;;;;;5098748;28;20036;-72
2023/01/26 01:03:02;;;;;;;23.13;16.75;;;1.30;99.90;;;;;;5098594;28;20051;-71
2023/01/26 01:05:30;;;;;;;22.60;15.88;;;1.30;99.90;;;;;;5098828;28;20054;-71
2023/01/26 01:07:56;;;;;;;24.50;16.17;;;1.90;99.90;;;;;;5100131;28;20825;-70
2023/01/26 01:10:22;;;;;;;22.65;16.77;;;1.30;99.90;;;;;;5098483;28;20039;-71
2023/01/26 01:12:48;;;;;;;25.55;15.57;;;1.90;99.90;;;;;;5098187;28;20044;-72
2023/01/26 01:15:14;;;;;;;22.52;15.77;;;1.30;99.90;;;;;;5094886;28;20102;-70
2023/01/26 01:17:40;;;;;;;23.40;15.23;;;1.40;99.90;;;;;;5083499;28;20048;-70
2023/01/26 01:20:08;;;;;;;24.20;17.98;;;1.60;99.90;;;;;;5088876;28;20070;-70
2023/01/26 01:22:34;;;;;;;22.23;16.00;;;1.40;99.90;;;;;;5095710;28;20078;-72
2023/01/26 01:25:00;;;;;;;21.73;15.73;;;1.40;99.90;;;;;;5080188;28;20052;-71
2023/01/26 01:27:26;;;;;;;22.90;14.35;;;1.60;99.90;;;;;;5092405;28;20056;-71
2023/01/26 01:29:52;;;;;;;21.30;14.70;;;1.80;99.90;;;;;;5092402;28;20059;-71
2023/01/26 01:32:18;;;;;;;19.63;14.77;;;1.40;99.90;;;;;;5101455;28;20078;-71
2023/01/26 01:34:46;;;;;;;19.45;13.88;;;1.40;99.90;;;;;;5089401;28;20048;-71
2023/01/26 01:37:12;;;;;;;21.73;14.82;;;1.40;99.90;;;;;;5084445;28;20055;-71
2023/01/26 01:39:37;;;;;;;21.13;14.98;;;1.30;99.90;;;;;;5083702;28;20051;-71
2023/01/26 01:42:03;;;;;;;23.55;14.63;;;1.40;99.90;;;;;;5095593;28;20691;-71
2023/01/26 01:44:29;;;;;;;20.70;15.02;;;1.40;99.90;;;;;;5093988;28;20059;-71
2023/01/26 01:47:00;;;;;;;22.33;16.08;;;1.40;99.90;;;;;;5083761;28;20548;-71
2023/01/26 01:49:39;;;;;;;24.15;14.93;;;1.40;99.90;;;;;;5096820;28;20052;-71
2023/01/26 01:52:24;;;;;;;20.17;13.68;;;1.40;99.90;;;;;;5103096;28;20062;-71
2023/01/26 01:54:56;;;;;;;20.50;14.48;;;1.40;99.90;;;;;;5100435;28;20118;-71
2023/01/26 01:57:30;;;;;;;28.25;16.80;;;1.50;99.90;;;;;;5090102;28;20124;-71
2023/01/26 02:00:05;;;;;;;24.15;14.95;;;1.90;99.90;;;;;;5091777;28;20138;-71
2023/01/26 02:02:31;;;;;;;21.92;13.65;;;1.50;99.90;;;;;;5096817;28;20081;-71
2023/01/26 02:05:02;;;;;;;22.05;15.40;;;1.90;99.90;;;;;;5093197;28;20043;-71
2023/01/26 02:07:31;;;;;;;24.58;15.05;;;1.40;99.90;;;;;;5088705;28;20060;-71
2023/01/26 02:12:43;;;;;;;24.10;16.23;;;1.40;99.90;;;;;;5089277;28;20690;-70
2023/01/26 02:15:09;;;;;;;23.48;14.93;;;1.50;99.90;;;;;;5092494;28;20056;-70
2023/01/26 02:17:35;;;;;;;19.40;14.52;;;1.50;99.90;;;;;;5102194;28;20163;-70
2023/01/26 02:20:09;;;;;;;22.50;15.10;;;1.40;99.90;;;;;;5102394;28;20150;-71
2023/01/26 02:23:10;;;;;;;26.20;16.13;;;1.50;99.90;;;;;;5098913;28;20376;-70
2023/01/26 02:25:39;;;;;;;23.38;14.93;;;1.40;99.90;;;;;;5087285;28;20051;-70
2023/01/26 02:28:05;;;;;;;20.45;14.05;;;1.40;99.90;;;;;;5101798;28;20101;-71
2023/01/26 02:30:31;;;;;;;24.85;16.00;;;1.40;99.90;;;;;;5086212;28;20048;-71
2023/01/26 02:32:57;;;;;;;25.45;16.00;;;1.40;99.90;;;;;;5088083;28;20438;-71
2023/01/26 02:35:23;;;;;;;28.05;17.35;;;1.70;99.90;;;;;;5089034;28;20500;-71
2023/01/26 02:37:48;;;;;;;19.55;12.35;;;1.40;99.90;;;;;;5090749;28;20039;-71
2023/01/26 02:40:31;;;;;;;22.10;15.20;;;1.50;99.90;;;;;;5098730;27;20044;-71
2023/01/26 02:42:57;;;;;;;21.30;14.87;;;1.50;99.90;;;;;;5095099;28;20596;-71
2023/01/26 02:45:23;;;;;;;17.63;13.00;;;1.50;99.90;;;;;;5088214;28;20056;-70
2023/01/26 02:47:49;;;;;;;23.67;14.43;;;2.10;99.90;;;;;;5083501;28;20817;-71
2023/01/26 02:50:15;;;;;;;24.00;17.88;;;1.90;99.90;;;;;;5088129;28;20142;-70
2023/01/26 02:52:41;;;;;;;22.70;16.23;;;1.60;99.90;;;;;;5092969;28;20087;-70
2023/01/26 02:58:02;;;;;;;21.00;15.20;;;1.50;99.90;;;;;;5093341;28;20059;-70
2023/01/26 03:00:30;;;;;;;22.17;16.35;;;1.50;99.90;;;;;;5090551;28;20568;-71
2023/01/26 03:02:59;;;;;;;21.90;15.70;;;2.00;99.90;;;;;;5093898;28;20051;-71
2023/01/26 03:05:26;;;;;;;21.27;16.27;;;1.80;99.90;;;;;;5083961;28;20066;-70
2023/01/26 03:07:53;;;;;;;22.77;15.95;;;1.90;99.90;;;;;;5098029;28;20047;-70
2023/01/26 03:10:18;;;;;;;25.65;15.73;;;1.60;99.90;;;;;;5092888;28;20036;-71
2023/01/26 03:12:45;;;;;;;25.38;15.85;;;1.50;99.90;;;;;;5081486;28;20070;-71
2023/01/26 03:29:02;;;;;;;25.92;17.30;;;1.60;99.90;;;;;;5094552;28;20389;-71
2023/01/26 03:31:27;;;;;;;28.10;19.45;;;1.60;99.90;;;;;;5088429;28;20565;-70
2023/01/26 03:33:53;;;;;;;23.15;15.32;;;1.70;99.90;;;;;;5087971;28;20048;-71
2023/01/26 03:36:19;;;;;;;22.35;15.18;;;1.70;99.90;;;;;;5096465;28;20372;-70
2023/01/26 03:38:44;;;;;;;21.90;13.30;;;1.70;99.90;;;;;;5099629;28;20047;-70
2023/01/26 03:57:36;;;;;;;20.25;14.40;;;1.60;99.90;;;;;;5083188;28;20712;-70
2023/01/26 04:00:03;;;;;;;22.08;15.77;;;1.70;99.90;;;;;;5098097;28;20081;-70
2023/01/26 04:08:21;;;;;;;20.88;15.00;;;1.70;99.90;;;;;;5094297;28;20059;-70
2023/01/26 04:10:50;;;;;;;19.77;15.00;;;1.80;99.90;;;;;;5097554;28;20566;-70
2023/01/26 04:21:34;;;;;;;17.55;12.73;;;1.80;99.90;;;;;;5095404;28;20051;-70
2023/01/26 04:24:08;;;;;;;21.27;13.73;;;2.30;99.90;;;;;;5093785;28;20478;-70
2023/01/26 04:26:35;;;;;;;20.17;14.68;;;1.80;99.90;;;;;;5096354;28;20096;-71
2023/01/26 04:29:06;;;;;;;17.92;13.57;;;1.80;99.90;;;;;;5092916;28;20061;-70
2023/01/26 04:31:33;;;;;;;15.00;12.50;;;1.90;99.90;;;;;;5092925;28;20120;-71
2023/01/26 04:34:00;;;;;;;18.70;14.32;;;1.90;99.90;;;;;;5094250;28;20172;-71
2023/01/26 04:36:26;;;;;;;21.23;13.32;;;1.90;99.90;;;;;;5094566;28;20128;-71
2023/01/26 04:38:52;;;;;;;18.70;13.88;;;1.90;99.90;;;;;;5095156;28;20217;-71
2023/01/26 04:41:18;;;;;;;22.13;14.05;;;1.90;99.90;;;;;;5097635;28;20059;-72
2023/01/26 04:43:44;;;;;;;22.77;16.42;;;2.50;99.90;;;;;;5098176;28;21755;-71
2023/01/26 04:46:10;;;;;;;16.55;12.52;;;1.90;99.90;;;;;;5091333;28;20055;-71
2023/01/26 04:48:36;;;;;;;18.73;13.85;;;1.90;99.90;;;;;;5095181;28;20043;-71
2023/01/26 04:51:05;;;;;;;20.80;13.00;;;1.90;99.90;;;;;;5096670;28;20046;-71
2023/01/26 04:53:32;;;;;;;20.60;13.75;;;2.00;99.90;;;;;;5094492;28;20774;-71
2023/01/26 04:55:58;;;;;;;18.83;12.60;;;2.00;99.90;;;;;;5098076;28;20046;-71
2023/01/26 04:58:24;;;;;;;17.67;13.57;;;2.10;99.90;;;;;;5096959;28;20605;-72
2023/01/26 05:00:54;;;;;;;18.77;12.25;;;1.90;99.90;;;;;;5098127;28;20039;-71
2023/01/26 05:03:20;;;;;;;23.08;16.63;;;2.00;99.90;;;;;;5092133;28;20036;-71
2023/01/26 05:05:49;;;;;;;23.30;14.48;;;1.90;99.90;;;;;;5102685;28;20507;-71
2023/01/26 05:08:15;;;;;;;25.42;19.15;;;1.90;99.90;;;;;;5101230;28;20039;-71
2023/01/26 05:10:41;;;;;;;23.92;15.43;;;2.00;99.90;;;;;;5101824;28;20046;-71
2023/01/26 05:13:07;;;;;;;18.13;14.18;;;2.90;99.90;;;;;;5097189;28;20043;-71
2023/01/26 05:15:33;;;;;;;21.75;15.98;;;2.00;99.90;;;;;;5099810;27;20079;-71
2023/01/26 05:17:59;;;;;;;19.00;14.95;;;2.60;99.90;;;;;;5096403;28;20047;-72
2023/01/26 05:20:25;;;;;;;17.30;13.90;;;2.00;99.90;;;;;;5100732;28;20660;-71
2023/01/26 05:22:51;;;;;;;20.42;15.55;;;2.00;99.90;;;;;;5097314;28;20040;-71
2023/01/26 05:25:17;;;;;;;24.75;16.40;;;2.10;99.90;;;;;;5089987;28;20113;-72
2023/01/26 05:27:43;;;;;;;22.23;14.93;;;2.00;99.90;;;;;;5102282;28;20116;-71
2023/01/26 05:30:09;;;;;;;19.45;14.48;;;2.00;99.90;;;;;;5091874;28;20044;-71
2023/01/26 05:32:35;;;;;;;22.77;15.90;;;2.00;99.90;;;;;;5088372;28;20388;-71
2023/01/26 05:35:02;;;;;;;22.23;14.68;;;2.30;99.90;;;;;;5089577;28;20415;-71
2023/01/26 05:37:28;;;;;;;30.52;21.33;;;2.10;99.90;;;;;;5095616;28;20052;-72
2023/01/26 05:39:54;;;;;;;25.77;14.82;;;2.10;99.90;;;;;;5100608;28;20051;-72
2023/01/26 05:42:20;;;;;;;25.45;17.02;;;2.10;99.90;;;;;;5094670;28;20491;-71
2023/01/26 05:44:46;;;;;;;27.70;17.73;;;2.10;99.90;;;;;;5097119;28;20162;-71
2023/01/26 05:47:12;;;;;;;26.88;16.75;;;2.10;99.90;;;;;;5102747;28;20177;-71
2023/01/26 05:49:41;;;;;;;33.63;20.58;;;2.10;99.90;;;;;;5094596;28;20142;-72
2023/01/26 05:52:11;;;;;;;27.42;17.52;;;2.00;99.90;;;;;;5088492;28;20553;-72
2023/01/26 05:54:37;;;;;;;28.55;18.02;;;2.30;99.90;;;;;;5100724;28;20043;-72
2023/01/26 05:57:03;;;;;;;28.58;18.73;;;2.50;99.90;;;;;;5077869;28;20815;-72
2023/01/26 05:59:29;;;;;;;31.98;18.83;;;2.10;99.90;;;;;;5090088;28;20509;-71
2023/01/26 06:01:55;;;;;;;31.38;18.88;;;2.00;99.90;;;;;;5097508;28;20614;-72
2023/01/26 06:04:21;;;;;;;34.58;17.73;;;2.10;99.90;;;;;;5102075;28;20048;-72
2023/01/26 06:06:47;;;;;;;33.92;20.13;;;2.00;99.90;;;;;;5089140;28;20607;-72
2023/01/26 06:09:12;;;;;;;30.33;16.58;;;2.00;99.90;;;;;;5087935;28;20050;-72
2023/01/26 06:11:38;;;;;;;26.77;16.85;;;2.30;99.90;;;;;;5095898;28;20075;-72
2023/01/26 06:14:04;;;;;;;38.17;23.23;;;2.10;99.90;;;;;;5088081;28;20060;-72
2023/01/26 06:16:29;;;;;;;30.40;17.63;;;2.90;99.90;;;;;;5102306;28;20056;-72
2023/01/26 06:18:55;;;;;;;37.88;19.63;;;2.20;99.90;;;;;;5101598;28;20090;-74
2023/01/26 06:21:21;;;;;;;32.42;18.98;;;2.70;99.90;;;;;;5094034;28;20055;-72
2023/01/26 06:23:46;;;;;;;26.90;17.98;;;2.10;99.90;;;;;;5087854;28;20826;-72
2023/01/26 06:26:14;;;;;;;28.60;18.00;;;2.10;99.90;;;;;;5089465;28;20112;-72
2023/01/26 06:28:39;;;;;;;34.03;20.73;;;2.20;99.90;;;;;;5098335;28;20902;-73
2023/01/26 06:31:06;;;;;;;29.35;18.45;;;2.30;99.90;;;;;;5088433;28;20039;-72
2023/01/26 06:33:35;;;;;;;29.67;17.55;;;2.20;99.90;;;;;;5091124;28;20051;-72
2023/01/26 06:36:09;;;;;;;25.83;18.05;;;2.20;99.90;;;;;;5098018;28;20051;-72
2023/01/26 06:38:35;;;;;;;33.40;21.45;;;2.20;99.90;;;;;;5099644;28;20046;-72
2023/01/26 06:41:08;;;;;;;38.35;23.98;;;2.20;99.90;;;;;;5098888;28;20107;-72
2023/01/26 06:43:34;;;;;;;25.45;15.25;;;2.20;99.90;;;;;;5097029;28;20098;-72
2023/01/26 06:46:02;;;;;;;28.30;17.52;;;2.60;99.90;;;;;;5099684;28;20058;-72
2023/01/26 06:48:32;;;;;;;26.02;17.38;;;2.20;99.90;;;;;;5098203;28;20043;-72
2023/01/26 06:51:19;;;;;;;33.25;19.42;;;2.30;99.90;;;;;;5091397;28;20094;-72
2023/01/26 06:53:53;;;;;;;34.55;20.67;;;2.30;99.90;;;;;;5084616;28;20044;-72
2023/01/26 06:56:19;;;;;;;28.48;18.88;;;2.30;99.90;;;;;;5098178;28;20049;-72
2023/01/26 06:58:45;;;;;;;30.30;18.48;;;2.30;99.90;;;;;;5094455;28;20047;-73
2023/01/26 07:01:17;;;;;;;28.15;17.67;;;2.30;99.90;;;;;;5091892;28;20058;-72
2023/01/26 07:03:43;;;;;;;33.22;19.38;;;2.40;99.90;;;;;;5090613;28;20043;-72
2023/01/26 07:06:12;;;;;;;31.65;19.75;;;2.30;99.90;;;;;;5098951;28;20065;-72
2023/01/26 07:08:39;;;;;;;36.47;20.88;;;2.40;99.90;;;;;;5085779;28;20047;-73
2023/01/26 07:11:05;;;;;;;37.42;19.77;;;2.50;99.90;;;;;;5090775;28;20916;-72
2023/01/26 07:13:31;;;;;;;27.83;17.92;;;2.40;99.90;;;;;;5087258;28;20047;-71
2023/01/26 07:16:11;;;;;;;30.52;18.02;;;2.50;99.90;;;;;;5091517;28;20568;-71
2023/01/26 07:18:36;;;;;;;40.42;23.67;;;2.50;99.90;;;;;;5086834;28;20114;-71
2023/01/26 07:21:11;;;;;;;36.92;23.25;;;2.80;99.90;;;;;;5092701;28;20671;-73
2023/01/26 07:23:38;;;;;;;37.97;22.42;;;2.80;99.90;;;;;;5095935;28;20058;-73
2023/01/26 07:26:04;;;;;;;36.10;20.45;;;2.60;99.90;;;;;;5084844;28;20047;-73
2023/01/26 07:28:29;;;;;;;40.80;19.25;;;2.60;99.90;;;;;;5098388;28;20150;-73
2023/01/26 07:31:02;;;;;;;31.98;19.83;;;2.60;99.90;;;;;;5090159;28;20069;-71
2023/01/26 07:33:28;;;;;;;37.13;21.20;;;2.70;99.90;;;;;;5093817;28;20409;-71
2023/01/26 07:35:56;;;;;;;31.23;17.67;;;2.70;99.90;;;;;;5090209;28;20398;-73
2023/01/26 07:38:22;;;;;;;27.17;18.17;;;2.70;99.90;;;;;;5085327;28;20220;-71
2023/01/26 07:40:48;;;;;;;33.75;18.38;;;2.70;99.90;;;;;;5097309;28;20039;-72
2023/01/26 07:43:14;;;;;;;33.47;17.63;;;3.60;99.90;;;;;;5097492;28;20050;-72
2023/01/26 07:45:44;;;;;;;25.75;15.32;;;2.70;99.90;;;;;;5097230;28;20040;-73
2023/01/26 07:48:09;;;;;;;32.85;18.20;;;2.80;99.90;;;;;;5091662;28;20553;-73
2023/01/26 07:50:35;;;;;;;29.55;17.33;;;2.70;99.90;;;;;;5093949;28;20545;-73
2023/01/26 07:53:01;;;;;;;42.55;18.42;;;2.80;99.90;;;;;;5091433;28;20043;-72
2023/01/26 07:55:27;;;;;;;29.95;16.67;;;2.80;99.90;;;;;;5095442;28;20047;-73
2023/01/26 07:57:53;;;;;;;39.28;16.75;;;3.00;99.90;;;;;;5092466;28;20047;-73
2023/01/26 08:00:19;;;;;;;32.97;16.23;;;2.80;99.90;;;;;;5094279;28;20064;-74
2023/01/26 08:02:49;;;;;;;32.90;17.13;;;2.80;99.90;;;;;;5093914;28;20068;-73
2023/01/26 08:05:15;;;;;;;23.50;14.98;;;3.10;99.90;;;;;;5098208;28;20051;-73
2023/01/26 08:07:40;;;;;;;27.70;14.70;;;2.70;99.90;;;;;;5097010;28;20052;-73
2023/01/26 08:10:09;;;;;;;28.98;14.07;;;3.10;99.90;;;;;;5097010;28;20044;-73
2023/01/26 08:12:35;;;;;;;35.53;16.23;;;2.80;99.90;;;;;;5096353;28;20053;-73
2023/01/26 08:15:01;;;;;;;36.60;15.25;;;2.90;99.90;;;;;;5096377;28;20447;-71
2023/01/26 08:17:32;;;;;;;35.40;15.48;;;3.00;99.90;;;;;;5093395;28;20043;-73
2023/01/26 08:19:58;;;;;;;39.33;15.73;;;3.00;99.90;;;;;;5096945;28;20551;-73
2023/01/26 08:22:25;;;;;;;41.80;16.23;;;3.10;99.90;;;;;;5096723;28;20043;-72
2023/01/26 08:24:50;;;;;;;37.13;15.90;;;4.00;99.90;;;;;;5089791;28;20081;-73
2023/01/26 08:27:16;;;;;;;29.73;14.10;;;3.20;99.90;;;;;;5093695;28;20048;-72
2023/01/26 08:29:42;;;;;;;33.70;14.70;;;3.20;99.90;;;;;;5092676;28;20565;-73
2023/01/26 08:32:08;;;;;;;31.23;13.00;;;2.00;99.90;;;;;;5091671;28;20047;-73
2023/01/26 08:34:34;;;;;;;27.38;14.00;;;3.70;99.90;;;;;;5093512;28;20052;-72
2023/01/26 08:37:00;;;;;;;32.20;13.68;;;3.50;99.90;;;;;;5087505;28;20077;-72
2023/01/26 08:39:27;;;;;;;33.92;13.60;;;3.40;99.90;;;;;;5093931;28;20493;-72
2023/01/26 08:41:54;;;;;;;34.42;13.50;;;3.50;99.90;;;;;;5072431;28;20059;-72
2023/01/26 08:44:19;;;;;;;36.33;16.05;;;3.50;99.90;;;;;;5087560;28;20140;-73
2023/01/26 08:46:45;;;;;;;34.75;13.63;;;3.50;99.90;;;;;;5093288;28;20127;-73
2023/01/26 08:49:11;;;;;;;33.92;12.77;;;3.50;99.90;;;;;;5096674;28;20493;-73
2023/01/26 08:51:37;;;;;;;39.03;14.07;;;3.70;99.90;;;;;;5092663;28;20031;-72
2023/01/26 08:54:09;;;;;;;26.85;10.80;;;3.80;99.90;;;;;;5094354;28;20566;-73
2023/01/26 08:56:35;;;;;;;38.47;12.23;;;3.80;99.90;;;;;;5091786;28;20269;-73
2023/01/26 08:59:00;;;;;;;32.38;11.65;;;3.90;99.90;;;;;;5096366;28;20140;-73
2023/01/26 09:01:26;;;;;;;32.78;11.18;;;4.20;99.90;;;;;;5096051;28;20118;-72
2023/01/26 09:03:54;;;;;;;26.38;10.45;;;4.10;99.90;;;;;;5095610;28;20048;-73
2023/01/26 09:06:20;;;;;;;34.47;11.75;;;4.10;99.90;;;;;;5084505;28;20146;-73
2023/01/26 09:08:45;;;;;;;30.00;9.73;;;4.20;99.90;;;;;;5095622;28;20052;-73
2023/01/26 09:11:12;;;;;;;29.15;9.73;;;4.30;99.90;;;;;;5077077;28;20225;-72
2023/01/26 09:13:38;;;;;;;27.60;9.32;;;4.40;99.90;;;;;;5090542;28;20052;-71
2023/01/26 09:16:14;;;;;;;25.98;8.75;;;4.50;99.90;;;;;;5080835;28;20862;-71
2023/01/26 09:18:40;;;;;;;28.83;8.90;;;4.50;99.90;;;;;;5079743;28;20113;-72
2023/01/26 09:21:08;;;;;;;26.92;8.85;;;4.60;99.90;;;;;;5096668;28;20047;-71
2023/01/26 09:23:34;;;;;;;32.08;9.20;;;4.60;99.90;;;;;;5082833;28;20043;-72
2023/01/26 09:26:00;;;;;;;30.55;10.57;;;4.70;99.90;;;;;;5076516;28;20047;-72
2023/01/26 09:28:26;;;;;;;27.58;9.00;;;4.80;99.90;;;;;;5086418;28;20079;-73
2023/01/26 09:30:52;;;;;;;32.00;8.90;;;4.80;99.90;;;;;;5089571;28;20050;-73
2023/01/26 09:33:20;;;;;;;35.30;9.77;;;4.80;99.90;;;;;;5094364;28;20051;-73
2023/01/26 09:35:46;;;;;;;24.67;7.90;;;5.00;99.90;;;;;;5092377;28;20527;-73
2023/01/26 09:38:12;;;;;;;21.05;7.68;;;4.90;99.90;;;;;;5094089;28;20052;-74
2023/01/26 09:41:08;;;;;;;18.30;7.47;;;5.00;99.90;;;;;;5089086;28;20051;-73
2023/01/26 09:43:47;;;;;;;30.77;8.05;;;5.10;99.90;;;;;;5091762;28;20500;-73
2023/01/26 09:46:22;;;;;;;28.67;8.18;;;5.20;99.90;;;;;;5105933;28;20051;-73
2023/01/26 09:48:53;;;;;;;21.35;7.30;;;5.20;99.90;;;;;;5095008;28;20047;-73
2023/01/26 09:51:36;;;;;;;21.85;8.43;;;5.30;99.90;;;;;;5096604;28;20051;-73
2023/01/26 09:54:20;;;;;;;22.65;8.63;;;5.40;99.90;;;;;;5096636;28;20165;-72
2023/01/26 09:56:45;;;;;;;19.00;6.95;;;5.60;99.90;;;;;;5093059;28;20048;-75
2023/01/26 09:59:18;;;;;;;30.23;7.10;;;5.80;99.90;;;;;;5097020;28;20069;-71
2023/01/26 10:01:56;;;;;;;34.10;7.45;;;5.90;99.90;;;;;;5096715;28;20500;-79
2023/01/26 10:04:38;;;;;;;27.15;7.45;;;6.00;99.90;;;;;;5096183;28;20059;-76
2023/01/26 10:07:12;;;;;;;17.05;6.47;;;6.00;99.90;;;;;;5091612;28;20062;-71
2023/01/26 10:09:42;;;;;;;19.98;6.35;;;6.00;99.90;;;;;;5097335;28;20047;-72
2023/01/26 10:12:18;;;;;;;18.73;6.78;;;6.00;99.90;;;;;;5097430;28;20039;-72
2023/01/26 10:14:52;;;;;;;14.00;6.65;;;6.00;99.90;;;;;;5094492;28;20135;-71
2023/01/26 10:17:26;;;;;;;20.70;7.05;;;6.10;99.90;;;;;;5093891;28;20167;-73
2023/01/26 10:20:02;;;;;;;27.15;7.47;;;6.20;99.90;;;;;;5099088;28;20043;-70
2023/01/26 10:22:54;;;;;;;18.90;6.22;;;6.20;99.90;;;;;;5096864;28;20142;-72
2023/01/26 10:25:34;;;;;;;22.98;5.55;;;6.30;99.90;;;;;;5094200;28;20792;-71
2023/01/26 10:28:15;;;;;;;12.15;4.93;;;6.40;99.90;;;;;;5094219;28;20474;-71
2023/01/26 10:30:43;;;;;;;13.82;4.63;;;6.40;99.90;;;;;;5093884;28;20141;-70
2023/01/26 10:33:12;;;;;;;13.80;6.13;;;6.50;99.90;;;;;;5096115;28;20107;-70
2023/01/26 10:35:38;;;;;;;21.23;5.65;;;6.50;99.90;;;;;;5072527;28;20047;-72
2023/01/26 10:38:36;;;;;;;22.50;7.03;;;6.60;99.90;;;;;;5096434;28;20050;-71
2023/01/26 10:41:15;;;;;;;10.82;4.95;;;6.60;99.90;;;;;;5095552;28;20855;-73
2023/01/26 10:43:56;;;;;;;17.67;5.97;;;6.70;99.90;;;;;;5096739;28;20051;-70
2023/01/26 10:46:37;;;;;;;18.27;4.70;;;6.70;99.90;;;;;;5096603;28;20047;-70
2023/01/26 10:49:10;;;;;;;26.05;6.50;;;6.80;99.90;;;;;;5088232;28;20052;-70
2023/01/26 10:51:41;;;;;;;13.25;4.72;;;6.80;99.90;;;;;;5094640;28;20044;-70
2023/01/26 10:54:14;;;;;;;14.05;5.25;;;6.90;99.90;;;;;;5094245;28;20051;-69
2023/01/26 10:56:47;;;;;;;;;;;7.00;99.90;;;;;;5084707;28;20039;-71
2023/01/26 10:59:23;;;;;;;16.90;6.78;;;7.10;99.90;;;;;;5097565;28;20330;-69
2023/01/26 11:01:55;;;;;;;18.98;5.35;;;7.20;99.90;;;;;;5096470;28;20047;-72
2023/01/26 11:04:21;;;;;;;19.33;5.40;;;7.30;99.90;;;;;;5097301;28;20047;-70
2023/01/26 11:06:47;;;;;;;14.95;5.30;;;7.50;99.90;;;;;;5094774;28;20058;-70
2023/01/26 11:09:28;;;;;;;15.05;5.60;;;7.50;99.90;;;;;;5096420;28;20052;-71
2023/01/26 11:12:00;;;;;;;17.35;5.15;;;7.60;99.90;;;;;;5096840;28;20031;-72
2023/01/26 11:14:25;;;;;;;20.13;4.05;;;7.70;99.90;;;;;;5096445;28;20055;-70
2023/01/26 11:17:23;;;;;;;16.77;6.63;;;7.70;99.90;;;;;;5099387;28;20044;-70
2023/01/26 11:20:15;;;;;;;21.70;5.53;;;7.70;99.90;;;;;;5094403;28;20134;-71
2023/01/26 11:23:07;;;;;;;15.75;5.18;;;7.70;99.90;;;;;;5088930;28;20055;-69
2023/01/26 11:26:07;;;;;;;15.50;4.78;;;7.70;99.90;;;;;;5094372;28;20093;-70
2023/01/26 11:28:57;;;;;;;9.75;4.57;;;7.70;99.90;;;;;;5097629;28;20148;-71
2023/01/26 11:31:31;;;;;;;19.60;5.43;;;7.70;99.90;;;;;;5098938;28;20329;-71
2023/01/26 11:34:48;;;;;;;10.65;4.43;;;7.70;99.90;;;;;;5073726;28;20569;-71
2023/01/26 11:37:44;;;;;;;17.10;5.05;;;7.60;99.90;;;;;;5072534;28;20070;-71
2023/01/26 11:40:36;;;;;;;13.20;3.85;;;7.70;99.90;;;;;;5096538;28;20048;-70
2023/01/26 11:43:27;;;;;;;20.30;5.28;;;7.70;99.90;;;;;;5093417;28;20429;-72
2023/01/26 11:46:17;;;;;;;10.55;3.45;;;7.70;99.90;;;;;;5097185;28;20661;-71
2023/01/26 11:48:59;;;;;;;11.98;3.90;;;7.80;99.90;;;;;;5100133;28;20570;-71
2023/01/26 11:51:28;;;;;;;14.30;5.15;;;7.80;99.90;;;;;;5095155;28;20134;-72
2023/01/26 11:54:14;;;;;;;6.90;3.85;;;8.00;99.90;;;;;;5088913;28;20050;-70
2023/01/26 11:56:46;;;;;;;8.15;3.05;;;8.10;99.90;;;;;;5092496;28;20862;-70
2023/01/26 11:59:24;;;;;;;8.93;3.40;;;8.20;99.90;;;;;;5097762;28;20376;-71
2023/01/26 12:02:02;;;;;;;12.13;3.05;;;8.20;99.90;;;;;;5083815;28;20128;-70
2023/01/26 12:04:32;;;;;;;6.47;2.58;;;8.10;99.90;;;;;;5085930;28;20052;-70
2023/01/26 12:07:05;;;;;;;5.10;2.80;;;7.90;99.90;;;;;;5100975;28;20043;-71
2023/01/26 12:09:49;;;;;;;13.80;3.13;;;7.60;99.90;;;;;;5082617;28;20048;-69
2023/01/26 12:12:29;;;;;;;11.45;4.32;;;7.50;99.90;;;;;;5090757;28;20043;-70
2023/01/26 12:15:03;;;;;;;16.17;3.67;;;7.40;99.90;;;;;;5086591;28;20043;-72
2023/01/26 12:17:33;;;;;;;10.50;3.38;;;7.40;99.90;;;;;;5095044;28;20051;-70
2023/01/26 12:20:24;;;;;;;13.15;3.60;;;7.40;99.90;;;;;;5094549;28;20036;-70
2023/01/26 12:23:28;;;;;;;6.80;2.50;;;7.50;99.90;;;;;;5094602;28;20059;-70
2023/01/26 12:25:59;;;;;;;;;;;7.60;99.90;;;;;;5082512;28;20074;-72
2023/01/26 12:28:28;;;;;;;9.55;3.47;;;7.50;99.90;;;;;;5096384;28;19923;-71
2023/01/26 12:31:06;;;;;;;7.05;2.65;;;7.60;99.90;;;;;;5092966;28;20044;-72
2023/01/26 12:33:32;;;;;;;7.72;2.67;;;7.60;99.90;;;;;;5094034;28;20102;-73
2023/01/26 12:36:15;;;;;;;7.78;3.10;;;7.70;99.90;;;;;;5096280;28;20047;-71
2023/01/26 12:39:00;;;;;;;11.07;3.03;;;7.70;99.90;;;;;;5095018;28;20133;-71
2023/01/26 12:41:51;;;;;;;7.32;3.05;;;7.80;99.90;;;;;;5094413;28;20055;-70
2023/01/26 12:44:27;;;;;;;9.55;3.55;;;7.80;99.90;;;;;;5058451;28;20133;-70
2023/01/26 12:47:03;;;;;;;7.82;3.00;;;7.90;99.90;;;;;;5096674;28;20629;-70
2023/01/26 12:49:36;;;;;;;9.75;3.38;;;7.90;99.90;;;;;;5095946;28;20426;-70
2023/01/26 12:52:22;;;;;;;4.72;3.50;;;8.00;99.90;;;;;;5092765;28;20992;-70
2023/01/26 12:54:52;;;;;;;5.20;2.80;;;8.00;99.90;;;;;;5094884;28;20056;-72
2023/01/26 12:57:24;;;;;;;7.90;2.78;;;8.00;99.90;;;;;;5095511;28;20050;-72
2023/01/26 12:59:50;;;;;;;6.25;2.95;;;8.00;99.90;;;;;;5097087;28;20052;-70
2023/01/26 13:02:25;;;;;;;7.80;3.60;;;8.10;99.90;;;;;;5097050;28;20527;-70
2023/01/26 13:04:51;;;;;;;6.55;3.22;;;8.20;99.90;;;;;;5096983;28;20119;-69
2023/01/26 13:07:31;;;;;;;9.27;3.38;;;8.20;99.90;;;;;;5096586;28;20594;-71
2023/01/26 13:10:18;;;;;;;8.45;3.45;;;8.10;99.90;;;;;;5096897;28;20066;-71
2023/01/26 13:12:50;;;;;;;7.13;2.47;;;8.10;99.90;;;;;;5096320;28;20043;-71
2023/01/26 13:15:18;;;;;;;6.05;3.55;;;8.10;99.90;;;;;;5098380;28;20575;-72
2023/01/26 13:17:53;;;;;;;12.43;4.30;;;8.10;99.90;;;;;;5098488;28;20107;-71
2023/01/26 13:20:48;;;;;;;9.48;3.22;;;8.10;99.90;;;;;;5097520;28;20075;-70
2023/01/26 13:23:42;;;;;;;8.55;3.30;;;8.10;99.90;;;;;;5097270;28;20057;-71
2023/01/26 13:26:17;;;;;;;12.65;3.70;;;8.10;99.90;;;;;;5099210;28;20039;-71
2023/01/26 13:28:44;;;;;;;12.57;4.03;;;8.10;99.90;;;;;;5099695;28;20572;-71
2023/01/26 13:31:11;;;;;;;8.10;2.72;;;8.10;99.90;;;;;;5102202;28;20109;-72
2023/01/26 13:33:38;;;;;;;9.75;3.17;;;8.10;99.90;;;;;;5100457;28;20047;-70
2023/01/26 13:36:14;;;;;;;7.40;2.08;;;8.10;99.90;;;;;;5100351;28;20059;-70
2023/01/26 13:38:43;;;;;;;6.13;2.75;;;8.10;99.90;;;;;;5101759;28;20047;-71
2023/01/26 13:41:16;;;;;;;7.63;2.05;;;8.10;99.90;;;;;;5102115;28;20075;-71
2023/01/26 13:44:00;;;;;;;7.90;2.35;;;8.10;99.90;;;;;;5099675;27;20572;-70
2023/01/26 13:46:44;;;;;;;7.32;2.40;;;8.10;99.90;;;;;;5098608;28;20600;-71
2023/01/26 13:49:40;;;;;;;6.60;2.20;;;8.10;99.90;;;;;;5100657;28;20054;-72
2023/01/26 13:52:24;;;;;;;4.05;1.90;;;8.10;99.90;;;;;;5099889;28;20047;-70